createdAt,value
2018-07-21T00:01:16.167Z,94805.77
2018-07-21T00:03:45.034Z,94806.73
2018-07-21T00:06:14.160Z,94810.47
2018-07-21T00:08:44.047Z,94806.20
2018-07-21T00:11:13.264Z,94810.38
2018-07-21T00:13:42.308Z,94815.92
2018-07-21T00:16:11.075Z,94811.33
2018-07-21T00:18:40.012Z,94815.08
2018-07-21T00:21:09.054Z,94816.47
2018-07-21T00:23:37.982Z,94822.04
2018-07-21T00:26:07.424Z,94822.12
2018-07-21T00:28:36.990Z,94828.02
2018-07-21T00:31:06.194Z,94821.91
2018-07-21T00:33:35.562Z,94819.28
2018-07-21T00:36:04.689Z,94821.51
2018-07-21T00:38:33.482Z,94818.70
2018-07-21T00:41:02.520Z,94819.98
2018-07-21T00:43:31.537Z,94825.53
2018-07-21T00:46:00.358Z,94827.14
2018-07-21T00:48:29.966Z,94828.20
2018-07-21T00:50:58.866Z,94831.30
2018-07-21T00:53:32.374Z,94823.67
2018-07-21T00:56:02.474Z,94822.81
2018-07-21T00:58:32.195Z,94829.91
2018-07-21T01:01:01.447Z,94831.72
2018-07-21T01:03:30.803Z,94822.61
2018-07-21T01:05:59.776Z,94825.27
2018-07-21T01:08:29.090Z,94828.32
2018-07-21T01:10:57.992Z,94824.78
2018-07-21T01:13:26.974Z,94825.03
2018-07-21T01:15:56.105Z,94835.41
2018-07-21T01:18:25.140Z,94834.65
2018-07-21T01:20:54.676Z,94834.34
2018-07-21T01:23:23.854Z,94839.67
2018-07-21T01:25:53.265Z,94837.44
2018-07-21T01:28:22.382Z,94836.80
2018-07-21T01:30:52.021Z,94826.83
2018-07-21T01:33:21.267Z,94826.73
2018-07-21T01:35:50.290Z,94827.05
2018-07-21T01:38:19.718Z,94827.55
2018-07-21T01:40:48.814Z,94828.16
2018-07-21T01:43:17.795Z,94825.89
2018-07-21T01:45:46.790Z,94823.31
2018-07-21T01:48:15.784Z,94820.63
2018-07-21T01:50:44.735Z,94820.63
2018-07-21T01:53:13.878Z,94821.98
2018-07-21T01:55:42.864Z,94823.02
2018-07-21T01:58:11.527Z,94825.14
2018-07-21T02:00:40.680Z,94825.63
2018-07-21T02:03:09.783Z,94821.23
2018-07-21T02:05:38.769Z,94828.50
2018-07-21T02:08:08.139Z,94817.27
2018-07-21T02:10:37.326Z,94824.65
2018-07-21T02:13:07.934Z,94820.98
2018-07-21T02:15:36.976Z,94825.45
2018-07-21T02:18:07.207Z,94824.44
2018-07-21T02:20:37.196Z,94825.16
2018-07-21T02:23:06.596Z,94828.49
2018-07-21T02:25:36.291Z,94830.64
2018-07-21T02:28:05.105Z,94827.47
2018-07-21T02:30:34.768Z,94823.88
2018-07-21T02:33:04.320Z,94828.72
2018-07-21T02:35:33.135Z,94835.48
2018-07-21T02:38:02.358Z,94830.56
2018-07-21T02:40:31.388Z,94834.04
2018-07-21T02:43:00.813Z,94836.25
2018-07-21T02:45:29.814Z,94840.58
2018-07-21T02:47:59.614Z,94842.66
2018-07-21T02:50:28.803Z,94834.80
2018-07-21T02:52:58.694Z,94837.58
2018-07-21T02:55:27.936Z,94835.02
2018-07-21T02:57:56.840Z,94839.72
2018-07-21T03:00:25.984Z,94818.16
2018-07-21T03:02:55.227Z,94836.42
2018-07-21T03:05:24.091Z,94839.80
2018-07-21T03:07:53.355Z,94850.21
2018-07-21T03:10:22.422Z,94845.67
2018-07-21T03:12:51.398Z,94839.98
2018-07-21T03:15:20.663Z,94842.28
2018-07-21T03:17:49.588Z,94843.45
2018-07-21T03:20:18.903Z,94850.06
2018-07-21T03:22:48.631Z,94849.28
2018-07-21T03:25:17.720Z,94850.48
2018-07-21T03:27:47.366Z,94848.41
2018-07-21T03:30:16.559Z,94857.28
2018-07-21T03:32:45.507Z,94853.12
2018-07-21T03:35:14.717Z,94848.94
2018-07-21T03:37:43.612Z,94851.20
2018-07-21T03:40:13.011Z,94846.38
2018-07-21T03:42:42.007Z,94849.53
2018-07-21T03:45:11.319Z,94842.86
2018-07-21T03:47:40.182Z,94848.17
2018-07-21T03:50:09.520Z,94848.36
2018-07-21T03:52:39.381Z,94844.91
2018-07-21T03:55:08.344Z,94842.17
2018-07-21T03:57:37.196Z,94854.02
2018-07-21T04:00:07.176Z,94848.02
2018-07-21T04:02:36.440Z,94847.95
2018-07-21T04:05:05.339Z,94851.55
2018-07-21T04:07:34.323Z,94854.42
2018-07-21T04:10:03.299Z,94853.70
2018-07-21T04:12:32.398Z,94832.72
2018-07-21T04:15:01.442Z,94863.94
2018-07-21T04:17:30.483Z,94857.71
2018-07-21T04:19:59.530Z,94856.63
2018-07-21T04:22:28.938Z,94863.24
2018-07-21T04:24:58.155Z,94867.94
2018-07-21T04:27:27.153Z,94869.34
2018-07-21T04:29:56.227Z,94867.13
2018-07-21T04:32:26.084Z,94859.55
2018-07-21T04:34:54.884Z,94863.61
2018-07-21T04:37:24.521Z,94856.20
2018-07-21T04:39:53.577Z,94860.77
2018-07-21T04:42:22.645Z,94856.41
2018-07-21T04:44:51.876Z,94862.48
2018-07-21T04:47:20.782Z,94857.59
2018-07-21T04:49:50.382Z,94860.47
2018-07-21T04:52:20.725Z,94862.77
2018-07-21T04:54:49.612Z,94860.53
2018-07-21T04:57:18.402Z,94862.44
2018-07-21T04:59:47.841Z,94869.70
2018-07-21T05:02:16.718Z,94864.13
2018-07-21T05:04:45.884Z,94875.81
2018-07-21T05:07:15.215Z,94876.54
2018-07-21T05:09:44.383Z,94876.11
2018-07-21T05:12:13.907Z,94874.77
2018-07-21T05:14:43.109Z,94874.38
2018-07-21T05:17:12.208Z,94880.25
2018-07-21T05:19:40.967Z,94877.86
2018-07-21T05:22:10.194Z,94881.86
2018-07-21T05:24:39.277Z,94871.37
2018-07-21T05:27:08.271Z,94871.95
2018-07-21T05:29:37.285Z,94881.70
2018-07-21T05:32:06.147Z,94877.23
2018-07-21T05:34:35.151Z,94880.61
2018-07-21T05:37:05.106Z,94887.17
2018-07-21T05:39:34.264Z,94887.97
2018-07-21T05:42:03.306Z,94888.31
2018-07-21T05:44:32.467Z,94880.27
2018-07-21T05:47:01.463Z,94855.72
2018-07-21T05:49:30.669Z,94879.79
2018-07-21T05:51:59.670Z,94873.38
2018-07-21T05:54:28.775Z,94875.06
2018-07-21T05:56:57.855Z,94875.19
2018-07-21T05:59:27.077Z,94872.23
2018-07-21T06:01:56.465Z,94874.58
2018-07-21T06:04:25.357Z,94879.23
2018-07-21T06:06:54.289Z,94879.16
2018-07-21T06:09:23.380Z,94885.53
2018-07-21T06:11:52.215Z,94884.58
2018-07-21T06:14:21.550Z,94887.66
2018-07-21T06:16:50.590Z,94882.88
2018-07-21T06:19:19.495Z,94880.50
2018-07-21T06:21:48.863Z,94865.55
2018-07-21T06:24:17.778Z,94877.87
2018-07-21T06:26:46.851Z,94875.80
2018-07-21T06:29:16.710Z,94880.08
2018-07-21T06:31:45.683Z,94870.97
2018-07-21T06:34:14.524Z,94864.50
2018-07-21T06:36:43.808Z,94875.37
2018-07-21T06:39:13.492Z,94874.70
2018-07-21T06:41:43.833Z,94869.59
2018-07-21T06:44:12.871Z,94862.73
2018-07-21T06:46:42.042Z,94860.22
2018-07-21T06:49:11.015Z,94861.77
2018-07-21T06:51:40.553Z,94869.25
2018-07-21T06:54:10.169Z,94861.77
2018-07-21T06:56:39.185Z,94861.10
2018-07-21T06:59:08.417Z,94859.13
2018-07-21T07:01:38.271Z,94856.53
2018-07-21T07:04:09.482Z,94850.11
2018-07-21T07:06:38.933Z,94853.68
2018-07-21T07:09:10.721Z,94855.19
2018-07-21T07:11:41.409Z,94850.03
2018-07-21T07:14:10.618Z,94849.94
2018-07-21T07:16:39.603Z,94849.63
2018-07-21T07:19:08.831Z,94845.02
2018-07-21T07:21:38.267Z,94841.25
2018-07-21T07:24:06.972Z,94845.80
2018-07-21T07:26:36.475Z,94840.50
2018-07-21T07:29:05.735Z,94841.88
2018-07-21T07:31:34.754Z,94838.11
2018-07-21T07:34:04.095Z,94837.54
2018-07-21T07:36:33.378Z,94836.13
2018-07-21T07:39:02.696Z,94834.52
2018-07-21T07:41:32.283Z,94841.55
2018-07-21T07:44:01.575Z,94839.58
2018-07-21T07:46:30.684Z,94838.55
2018-07-21T07:49:00.264Z,94832.27
2018-07-21T07:51:29.424Z,94827.02
2018-07-21T07:53:58.259Z,94831.58
2018-07-21T07:56:27.872Z,94825.46
2018-07-21T07:58:56.955Z,94831.34
2018-07-21T08:01:26.116Z,94837.80
2018-07-21T08:03:55.409Z,94828.32
2018-07-21T08:06:24.899Z,94833.91
2018-07-21T08:08:53.958Z,94838.73
2018-07-21T08:11:23.546Z,94836.36
2018-07-21T08:13:52.442Z,94834.30
2018-07-21T08:16:21.320Z,94840.28
2018-07-21T08:18:51.011Z,94846.73
2018-07-21T08:21:19.855Z,94849.48
2018-07-21T08:23:48.583Z,94855.27
2018-07-21T08:26:18.023Z,94849.29
2018-07-21T08:28:47.255Z,94853.16
2018-07-21T08:31:16.611Z,94862.40
2018-07-21T08:33:45.889Z,94867.61
2018-07-21T08:36:14.977Z,94860.94
2018-07-21T08:38:44.128Z,94860.55
2018-07-21T08:41:13.389Z,94858.23
2018-07-21T08:43:42.555Z,94854.67
2018-07-21T08:46:11.575Z,94855.41
2018-07-21T08:48:40.855Z,94845.72
2018-07-21T08:51:09.816Z,94851.45
2018-07-21T08:53:38.767Z,94855.94
2018-07-21T08:56:08.295Z,94850.15
2018-07-21T08:58:37.215Z,94841.91
2018-07-21T09:01:06.106Z,94849.72
2018-07-21T09:03:36.329Z,94845.05
2018-07-21T09:06:05.324Z,94842.30
2018-07-21T09:08:34.226Z,94843.23
2018-07-21T09:11:03.144Z,94846.41
2018-07-21T09:13:32.590Z,94849.53
2018-07-21T09:16:01.604Z,94849.80
2018-07-21T09:18:30.631Z,94847.02
2018-07-21T09:20:59.429Z,94852.37
2018-07-21T09:23:28.368Z,94852.50
2018-07-21T09:25:58.105Z,94843.51
2018-07-21T09:28:27.166Z,94846.06
2018-07-21T09:30:56.027Z,94850.50
2018-07-21T09:33:25.364Z,94847.21
2018-07-21T09:35:54.242Z,94851.77
2018-07-21T09:38:23.546Z,94846.55
2018-07-21T09:40:52.530Z,94844.39
2018-07-21T09:43:21.953Z,94844.72
2018-07-21T09:45:51.028Z,94842.17
2018-07-21T09:48:20.343Z,94840.39
2018-07-21T09:50:49.279Z,94838.99
2018-07-21T09:53:18.264Z,94835.02
2018-07-21T09:55:47.534Z,94828.24
2018-07-21T09:58:16.465Z,94828.97
2018-07-21T10:00:50.796Z,94832.61
2018-07-21T10:03:21.678Z,94835.85
2018-07-21T10:05:50.946Z,94825.03
2018-07-21T10:08:20.003Z,94828.20
2018-07-21T10:10:48.858Z,94825.43
2018-07-21T10:13:18.147Z,94820.63
2018-07-21T10:15:47.174Z,94822.03
2018-07-21T10:18:16.064Z,94824.82
2018-07-21T10:20:45.158Z,94810.58
2018-07-21T10:23:14.475Z,94810.41
2018-07-21T10:25:48.520Z,94811.91
2018-07-21T10:28:22.732Z,94810.86
2018-07-21T10:30:51.566Z,94812.54
2018-07-21T10:33:20.856Z,94819.34
2018-07-21T10:35:50.108Z,94829.30
2018-07-21T10:38:18.940Z,94819.13
2018-07-21T10:40:48.115Z,94818.95
2018-07-21T10:43:17.879Z,94812.05
2018-07-21T10:45:46.858Z,94811.77
2018-07-21T10:48:16.243Z,94816.34
2018-07-21T10:50:46.186Z,94818.44
2018-07-21T10:53:14.839Z,94804.47
2018-07-21T10:55:43.748Z,94801.63
2018-07-21T10:58:14.087Z,94811.66
2018-07-21T11:00:44.187Z,94810.17
2018-07-21T11:03:13.249Z,94820.13
2018-07-21T11:05:42.416Z,94815.25
2018-07-21T11:08:11.820Z,94814.44
2018-07-21T11:13:09.012Z,94799.12
2018-07-21T11:15:38.064Z,94810.69
2018-07-21T11:18:07.046Z,94806.02
2018-07-21T11:20:36.264Z,94803.06
2018-07-21T11:23:05.540Z,94804.25
2018-07-21T11:25:34.527Z,94801.32
2018-07-21T11:28:03.880Z,94806.06
2018-07-21T11:30:32.790Z,94801.94
2018-07-21T11:33:01.946Z,94809.48
2018-07-21T11:35:31.247Z,94809.29
2018-07-21T11:38:00.097Z,94800.16
2018-07-21T11:40:29.107Z,94803.14
2018-07-21T11:42:58.331Z,94804.05
2018-07-21T11:45:27.729Z,94800.09
2018-07-21T11:47:56.916Z,94788.48
2018-07-21T11:50:25.855Z,94797.92
2018-07-21T11:52:54.619Z,94801.28
2018-07-21T11:55:23.677Z,94786.47
2018-07-21T11:57:53.379Z,94791.53
2018-07-21T12:00:22.405Z,94799.35
2018-07-21T12:02:51.477Z,94793.55
2018-07-21T12:05:20.780Z,94782.23
2018-07-21T12:07:49.675Z,94784.00
2018-07-21T12:10:18.568Z,94778.89
2018-07-21T12:12:47.451Z,94776.20
2018-07-21T12:15:17.066Z,94775.36
2018-07-21T12:17:46.076Z,94777.38
2018-07-21T12:20:15.546Z,94769.40
2018-07-21T12:22:44.552Z,94776.25
2018-07-21T12:25:13.251Z,94766.20
2018-07-21T12:27:42.180Z,94767.49
2018-07-21T12:30:10.911Z,94757.65
2018-07-21T12:32:39.616Z,94757.43
2018-07-21T12:35:08.753Z,94756.77
2018-07-21T12:37:37.709Z,94749.97
2018-07-21T12:40:06.668Z,94758.08
2018-07-21T12:42:36.030Z,94748.88
2018-07-21T12:45:05.121Z,94752.75
2018-07-21T12:47:34.210Z,94757.13
2018-07-21T12:50:03.634Z,94753.88
2018-07-21T12:52:32.535Z,94760.94
2018-07-21T12:55:01.347Z,94755.48
2018-07-21T12:57:30.284Z,94757.20
2018-07-21T12:59:59.366Z,94757.81
2018-07-21T13:02:30.180Z,94748.59
2018-07-21T13:04:59.219Z,94751.20
2018-07-21T13:07:28.038Z,94750.63
2018-07-21T13:09:57.672Z,94741.55
2018-07-21T13:12:26.895Z,94747.64
2018-07-21T13:14:56.279Z,94746.39
2018-07-21T13:17:25.443Z,94739.06
2018-07-21T13:19:54.169Z,94741.89
2018-07-21T13:22:23.116Z,94733.02
2018-07-21T13:24:52.215Z,94725.41
2018-07-21T13:27:21.035Z,94727.31
2018-07-21T13:29:50.349Z,94728.31
2018-07-21T13:32:19.436Z,94729.06
2018-07-21T13:34:48.156Z,94725.18
2018-07-21T13:37:17.445Z,94727.94
2018-07-21T13:39:46.531Z,94723.58
2018-07-21T13:42:15.432Z,94720.08
2018-07-21T13:44:44.616Z,94713.83
2018-07-21T13:47:13.287Z,94715.83
2018-07-21T13:49:43.100Z,94713.55
2018-07-21T13:52:12.536Z,94715.58
2018-07-21T13:54:41.715Z,94713.56
2018-07-21T13:57:10.475Z,94716.59
2018-07-21T13:59:39.527Z,94721.21
2018-07-21T14:02:08.752Z,94726.53
2018-07-21T14:04:37.499Z,94706.30
2018-07-21T14:07:07.299Z,94726.02
2018-07-21T14:09:36.026Z,94722.16
2018-07-21T14:12:05.906Z,94715.45
2018-07-21T14:14:35.435Z,94723.86
2018-07-21T14:17:04.285Z,94718.17
2018-07-21T14:19:33.268Z,94720.50
2018-07-21T14:22:02.304Z,94727.20
2018-07-21T14:24:31.278Z,94724.80
2018-07-21T14:27:00.414Z,94720.50
2018-07-21T14:29:29.885Z,94725.49
2018-07-21T14:31:59.011Z,94724.53
2018-07-21T14:34:28.331Z,94728.91
2018-07-21T14:36:57.211Z,94732.19
2018-07-21T14:39:27.107Z,94733.59
2018-07-21T14:41:56.732Z,94728.48
2018-07-21T14:44:26.452Z,94733.25
2018-07-21T14:46:56.019Z,94727.81
2018-07-21T14:49:25.311Z,94726.17
2018-07-21T14:51:54.840Z,94720.06
2018-07-21T14:54:23.658Z,94727.00
2018-07-21T14:56:52.943Z,94729.66
2018-07-21T14:59:22.116Z,94727.30
2018-07-21T15:01:51.110Z,94724.45
2018-07-21T15:04:20.229Z,94721.64
2018-07-21T15:06:49.146Z,94718.14
2018-07-21T15:09:18.305Z,94721.48
2018-07-21T15:11:48.232Z,94710.24
2018-07-21T15:14:17.127Z,94710.78
2018-07-21T15:16:46.474Z,94712.05
2018-07-21T15:19:15.680Z,94712.20
2018-07-21T15:21:44.727Z,94710.27
2018-07-21T15:24:13.583Z,94704.97
2018-07-21T15:26:43.059Z,94710.70
2018-07-21T15:29:11.994Z,94716.80
2018-07-21T15:31:41.739Z,94714.84
2018-07-21T15:34:10.790Z,94712.09
2018-07-21T15:36:39.707Z,94717.75
2018-07-21T15:39:09.657Z,94716.20
2018-07-21T15:41:39.147Z,94720.31
2018-07-21T15:44:08.555Z,94698.20
2018-07-21T15:46:38.037Z,94714.84
2018-07-21T15:49:07.675Z,94710.52
2018-07-21T15:51:36.942Z,94707.91
2018-07-21T15:54:06.067Z,94713.63
2018-07-21T15:56:35.694Z,94708.80
2018-07-21T15:59:04.747Z,94717.03
2018-07-21T16:01:33.873Z,94708.42
2018-07-21T16:04:03.075Z,94704.77
2018-07-21T16:06:31.928Z,94709.00
2018-07-21T16:09:00.961Z,94707.06
2018-07-21T16:11:29.967Z,94707.23
2018-07-21T16:13:59.419Z,94712.31
2018-07-21T16:16:28.507Z,94712.77
2018-07-21T16:18:58.357Z,94707.86
2018-07-21T16:21:28.200Z,94715.14
2018-07-21T16:23:57.991Z,94713.41
2018-07-21T16:26:27.195Z,94713.30
2018-07-21T16:28:55.965Z,94716.64
2018-07-21T16:31:25.991Z,94716.45
2018-07-21T16:33:55.807Z,94719.95
2018-07-21T16:36:25.325Z,94726.58
2018-07-21T16:38:54.398Z,94720.22
2018-07-21T16:41:24.162Z,94723.70
2018-07-21T16:43:53.009Z,94732.52
2018-07-21T16:46:23.079Z,94729.93
2018-07-21T16:48:52.263Z,94726.16
2018-07-21T16:51:21.214Z,94731.25
2018-07-21T16:53:49.987Z,94733.53
2018-07-21T16:56:19.142Z,94743.50
2018-07-21T16:58:48.812Z,94744.02
2018-07-21T17:01:17.618Z,94748.02
2018-07-21T17:03:46.545Z,94743.27
2018-07-21T17:06:15.491Z,94740.63
2018-07-21T17:08:44.716Z,94736.89
2018-07-21T17:11:14.062Z,94746.84
2018-07-21T17:13:42.986Z,94745.16
2018-07-21T17:16:12.079Z,94746.91
2018-07-21T17:18:41.995Z,94755.78
2018-07-21T17:21:11.014Z,94748.48
2018-07-21T17:23:40.432Z,94752.78
2018-07-21T17:26:09.723Z,94750.20
2018-07-21T17:28:39.274Z,94745.58
2018-07-21T17:31:08.315Z,94752.03
2018-07-21T17:33:37.203Z,94756.87
2018-07-21T17:36:06.301Z,94747.89
2018-07-21T17:38:35.393Z,94760.45
2018-07-21T17:41:04.880Z,94752.78
2018-07-21T17:43:33.788Z,94755.62
2018-07-21T17:46:03.068Z,94753.34
2018-07-21T17:48:32.116Z,94750.41
2018-07-21T17:51:01.088Z,94753.34
2018-07-21T17:53:30.919Z,94750.14
2018-07-21T17:56:00.208Z,94752.76
2018-07-21T17:58:29.100Z,94762.38
2018-07-21T18:00:58.182Z,94754.17
2018-07-21T18:03:27.436Z,94748.55
2018-07-21T18:05:56.384Z,94755.05
2018-07-21T18:08:25.365Z,94755.80
2018-07-21T18:10:54.769Z,94747.85
2018-07-21T18:13:23.768Z,94754.58
2018-07-21T18:15:52.563Z,94757.92
2018-07-21T18:18:21.814Z,94761.12
2018-07-21T18:20:50.837Z,94750.17
2018-07-21T18:23:19.708Z,94760.02
2018-07-21T18:25:49.856Z,94765.84
2018-07-21T18:28:18.695Z,94762.16
2018-07-21T18:30:47.494Z,94764.43
2018-07-21T18:33:16.760Z,94767.03
2018-07-21T18:35:45.615Z,94770.39
2018-07-21T18:38:16.019Z,94771.14
2018-07-21T18:40:44.959Z,94773.29
2018-07-21T18:43:13.911Z,94771.98
2018-07-21T18:45:42.655Z,94769.28
2018-07-21T18:48:12.476Z,94770.69
2018-07-21T18:50:42.083Z,94772.53
2018-07-21T18:53:10.913Z,94776.73
2018-07-21T18:55:40.030Z,94780.76
2018-07-21T18:58:09.034Z,94774.19
2018-07-21T19:00:38.280Z,94776.34
2018-07-21T19:03:07.221Z,94783.83
2018-07-21T19:05:36.029Z,94785.30
2018-07-21T19:08:05.952Z,94787.43
2018-07-21T19:10:35.230Z,94792.00
2018-07-21T19:13:04.300Z,94790.77
2018-07-21T19:15:38.935Z,94783.10
2018-07-21T19:18:07.911Z,94779.80
2018-07-21T19:20:42.429Z,94775.22
2018-07-21T19:23:11.435Z,94775.86
2018-07-21T19:25:45.855Z,94779.80
2018-07-21T19:28:14.762Z,94775.78
2018-07-21T19:30:43.855Z,94778.09
2018-07-21T19:33:13.263Z,94773.97
2018-07-21T19:35:42.435Z,94780.95
2018-07-21T19:38:11.240Z,94779.81
2018-07-21T19:40:40.650Z,94778.88
2018-07-21T19:43:09.319Z,94772.23
2018-07-21T19:45:38.367Z,94777.66
2018-07-21T19:48:07.386Z,94769.76
2018-07-21T19:50:36.613Z,94771.34
2018-07-21T19:53:05.790Z,94776.23
2018-07-21T19:55:34.927Z,94781.91
2018-07-21T19:58:04.072Z,94778.30
2018-07-21T20:00:32.820Z,94778.05
2018-07-21T20:03:02.631Z,94778.52
2018-07-21T20:05:31.425Z,94783.25
2018-07-21T20:08:00.615Z,94789.42
2018-07-21T20:10:29.519Z,94789.31
2018-07-21T20:12:58.575Z,94786.91
2018-07-21T20:15:27.607Z,94799.22
2018-07-21T20:17:57.447Z,94801.20
2018-07-21T20:20:26.503Z,94791.01
2018-07-21T20:22:55.621Z,94797.72
2018-07-21T20:25:24.649Z,94793.90
2018-07-21T20:27:53.913Z,94792.07
2018-07-21T20:30:23.106Z,94792.07
2018-07-21T20:32:52.902Z,94795.24
2018-07-21T20:35:22.627Z,94793.45
2018-07-21T20:37:51.418Z,94783.77
2018-07-21T20:40:20.333Z,94775.91
2018-07-21T20:42:49.507Z,94775.48
2018-07-21T20:45:18.599Z,94770.32
2018-07-21T20:47:47.732Z,94765.42
2018-07-21T20:50:16.783Z,94766.82
2018-07-21T20:52:45.654Z,94774.46
2018-07-21T20:55:14.508Z,94779.46
2018-07-21T20:57:43.584Z,94777.30
2018-07-21T21:00:12.694Z,94774.59
2018-07-21T21:02:41.608Z,94777.20
2018-07-21T21:05:10.524Z,94773.53
2018-07-21T21:07:39.251Z,94779.05
2018-07-21T21:10:08.437Z,94777.49
2018-07-21T21:12:37.494Z,94779.30
2018-07-21T21:15:08.220Z,94781.01
2018-07-21T21:17:37.530Z,94777.88
2018-07-21T21:20:06.479Z,94782.41
2018-07-21T21:22:35.299Z,94780.37
2018-07-21T21:25:05.208Z,94776.07
2018-07-21T21:27:34.267Z,94784.28
2018-07-21T21:30:03.131Z,94787.01
2018-07-21T21:32:32.471Z,94782.95
2018-07-21T21:35:01.258Z,94785.52
2018-07-21T21:37:30.323Z,94788.95
2018-07-21T21:39:59.887Z,94781.75
2018-07-21T21:42:28.751Z,94782.63
2018-07-21T21:44:58.252Z,94781.23
2018-07-21T21:47:27.076Z,94783.05
2018-07-21T21:49:55.919Z,94790.33
2018-07-21T21:52:24.954Z,94791.95
2018-07-21T21:54:54.044Z,94789.27
2018-07-21T21:57:22.813Z,94795.09
2018-07-21T21:59:51.799Z,94794.33
2018-07-21T22:02:20.836Z,94786.30
2018-07-21T22:04:49.813Z,94784.36
2018-07-21T22:07:18.792Z,94786.84
2018-07-21T22:09:47.915Z,94782.13
2018-07-21T22:12:16.974Z,94786.72
2018-07-21T22:14:45.986Z,94781.70
2018-07-21T22:17:15.026Z,94783.09
2018-07-21T22:19:43.975Z,94776.55
2018-07-21T22:22:18.049Z,94781.80
2018-07-21T22:24:47.800Z,94786.08
2018-07-21T22:27:16.910Z,94791.33
2018-07-21T22:29:46.230Z,94785.22
2018-07-21T22:32:15.090Z,94778.59
2018-07-21T22:34:43.993Z,94780.83
2018-07-21T22:37:13.209Z,94781.98
2018-07-21T22:39:42.003Z,94782.74
2018-07-21T22:42:10.826Z,94780.81
2018-07-21T22:44:40.999Z,94782.00
2018-07-21T22:47:10.080Z,94777.70
2018-07-21T22:49:39.074Z,94780.81
2018-07-21T22:52:08.403Z,94780.91
2018-07-21T22:54:37.266Z,94784.25
2018-07-21T22:57:06.060Z,94783.14
2018-07-21T22:59:35.255Z,94785.61
2018-07-21T23:02:03.933Z,94786.13
2018-07-21T23:04:32.851Z,94776.89
2018-07-21T23:07:01.951Z,94763.38
2018-07-21T23:09:30.836Z,94774.73
2018-07-21T23:11:59.933Z,94777.75
2018-07-21T23:14:29.147Z,94777.07
2018-07-21T23:16:57.895Z,94765.45
2018-07-21T23:19:27.004Z,94766.00
2018-07-21T23:21:56.136Z,94766.09
2018-07-21T23:24:24.978Z,94761.06
2018-07-21T23:26:53.855Z,94757.80
2018-07-21T23:29:23.191Z,94763.14
2018-07-21T23:31:52.028Z,94764.97
2018-07-21T23:34:20.864Z,94757.96
2018-07-21T23:36:50.227Z,94757.28
2018-07-21T23:39:21.606Z,94753.73
2018-07-21T23:41:50.838Z,94759.93
2018-07-21T23:44:20.025Z,94763.15
2018-07-21T23:46:48.920Z,94756.30
2018-07-21T23:49:17.948Z,94763.03
2018-07-21T23:51:47.754Z,94761.70
2018-07-21T23:54:16.828Z,94769.30
2018-07-21T23:56:46.295Z,94770.24
2018-07-21T23:59:15.323Z,94767.74
